sensor_id;sensor_type;location;lat;lon;timestamp;P1;durP1;ratioP1;P2;durP2;ratioP2
53781;SDS011;39692;53.114;7.060;2023-04-24T00:01:15;0.25;;;0.20;;
53781;SDS011;39692;53.114;7.060;2023-04-24T00:03:42;0.40;;;0.20;;
53781;SDS011;39692;53.114;7.060;2023-04-24T00:06:08;0.17;;;0.17;;
53781;SDS011;39692;53.114;7.060;2023-04-24T00:08:34;0.20;;;0.20;;
53781;SDS011;39692;53.114;7.060;2023-04-24T00:11:01;0.43;;;0.25;;
53781;SDS011;39692;53.114;7.060;2023-04-24T00:13:27;0.30;;;0.20;;
53781;SDS011;39692;53.114;7.060;2023-04-24T00:15:54;0.75;;;0.30;;
53781;SDS011;39692;53.114;7.060;2023-04-24T00:18:20;0.43;;;0.30;;
53781;SDS011;39692;53.114;7.060;2023-04-24T00:20:46;1.23;;;0.35;;
53781;SDS011;39692;53.114;7.060;2023-04-24T00:23:12;0.55;;;0.30;;
53781;SDS011;39692;53.114;7.060;2023-04-24T00:25:38;0.75;;;0.43;;
53781;SDS011;39692;53.114;7.060;2023-04-24T00:28:05;0.65;;;0.30;;
53781;SDS011;39692;53.114;7.060;2023-04-24T00:30:31;1.90;;;0.40;;
53781;SDS011;39692;53.114;7.060;2023-04-24T00:32:57;0.75;;;0.35;;
53781;SDS011;39692;53.114;7.060;2023-04-24T00:35:23;3.17;;;0.68;;
53781;SDS011;39692;53.114;7.060;2023-04-24T00:37:49;1.15;;;0.50;;
53781;SDS011;39692;53.114;7.060;2023-04-24T00:40:16;1.67;;;0.60;;
53781;SDS011;39692;53.114;7.060;2023-04-24T00:42:42;1.02;;;0.70;;
53781;SDS011;39692;53.114;7.060;2023-04-24T00:45:09;2.08;;;0.50;;
53781;SDS011;39692;53.114;7.060;2023-04-24T00:47:36;0.93;;;0.50;;
53781;SDS011;39692;53.114;7.060;2023-04-24T00:50:03;1.40;;;0.77;;
53781;SDS011;39692;53.114;7.060;2023-04-24T00:52:29;0.90;;;0.55;;
53781;SDS011;39692;53.114;7.060;2023-04-24T00:54:57;1.88;;;0.90;;
53781;SDS011;39692;53.114;7.060;2023-04-24T00:57:23;6.63;;;0.80;;
53781;SDS011;39692;53.114;7.060;2023-04-24T00:59:50;2.13;;;0.93;;
53781;SDS011;39692;53.114;7.060;2023-04-24T01:02:17;2.10;;;0.85;;
53781;SDS011;39692;53.114;7.060;2023-04-24T01:04:43;1.48;;;0.75;;
53781;SDS011;39692;53.114;7.060;2023-04-24T01:07:09;1.65;;;0.80;;
53781;SDS011;39692;53.114;7.060;2023-04-24T01:09:42;1.17;;;0.70;;
53781;SDS011;39692;53.114;7.060;2023-04-24T01:12:12;1.55;;;0.80;;
53781;SDS011;39692;53.114;7.060;2023-04-24T01:14:38;2.05;;;0.93;;
53781;SDS011;39692;53.114;7.060;2023-04-24T01:17:04;1.85;;;0.95;;
53781;SDS011;39692;53.114;7.060;2023-04-24T01:19:31;2.42;;;0.88;;
53781;SDS011;39692;53.114;7.060;2023-04-24T01:21:58;2.35;;;1.15;;
53781;SDS011;39692;53.114;7.060;2023-04-24T01:24:24;1.52;;;0.93;;
53781;SDS011;39692;53.114;7.060;2023-04-24T01:26:50;2.28;;;1.10;;
53781;SDS011;39692;53.114;7.060;2023-04-24T01:29:16;2.15;;;1.38;;
53781;SDS011;39692;53.114;7.060;2023-04-24T01:31:43;2.30;;;1.20;;
53781;SDS011;39692;53.114;7.060;2023-04-24T01:34:09;2.15;;;1.00;;
53781;SDS011;39692;53.114;7.060;2023-04-24T01:36:35;2.28;;;1.55;;
53781;SDS011;39692;53.114;7.060;2023-04-24T01:39:01;1.63;;;1.20;;
53781;SDS011;39692;53.114;7.060;2023-04-24T01:41:28;1.65;;;1.10;;
53781;SDS011;39692;53.114;7.060;2023-04-24T01:43:55;1.55;;;0.98;;
53781;SDS011;39692;53.114;7.060;2023-04-24T01:46:22;2.28;;;1.15;;
53781;SDS011;39692;53.114;7.060;2023-04-24T01:48:49;1.70;;;0.77;;
53781;SDS011;39692;53.114;7.060;2023-04-24T01:51:16;1.88;;;1.00;;
53781;SDS011;39692;53.114;7.060;2023-04-24T01:53:43;2.03;;;1.05;;
53781;SDS011;39692;53.114;7.060;2023-04-24T01:56:09;1.10;;;0.60;;
53781;SDS011;39692;53.114;7.060;2023-04-24T01:58:35;1.40;;;0.70;;
53781;SDS011;39692;53.114;7.060;2023-04-24T02:01:01;1.40;;;0.90;;
53781;SDS011;39692;53.114;7.060;2023-04-24T02:03:27;3.28;;;0.90;;
53781;SDS011;39692;53.114;7.060;2023-04-24T02:05:54;1.27;;;0.70;;
53781;SDS011;39692;53.114;7.060;2023-04-24T02:08:20;1.50;;;1.00;;
53781;SDS011;39692;53.114;7.060;2023-04-24T02:10:46;2.05;;;1.08;;
53781;SDS011;39692;53.114;7.060;2023-04-24T02:13:12;1.88;;;1.13;;
53781;SDS011;39692;53.114;7.060;2023-04-24T02:15:38;1.98;;;0.98;;
53781;SDS011;39692;53.114;7.060;2023-04-24T02:18:04;1.88;;;1.13;;
53781;SDS011;39692;53.114;7.060;2023-04-24T02:20:31;2.15;;;0.95;;
53781;SDS011;39692;53.114;7.060;2023-04-24T02:23:00;2.45;;;1.45;;
53781;SDS011;39692;53.114;7.060;2023-04-24T02:25:26;1.55;;;1.08;;
53781;SDS011;39692;53.114;7.060;2023-04-24T02:27:52;2.72;;;1.70;;
53781;SDS011;39692;53.114;7.060;2023-04-24T02:30:18;5.47;;;2.53;;
53781;SDS011;39692;53.114;7.060;2023-04-24T02:32:44;3.60;;;2.85;;
53781;SDS011;39692;53.114;7.060;2023-04-24T02:35:10;4.32;;;2.28;;
53781;SDS011;39692;53.114;7.060;2023-04-24T02:37:37;3.40;;;1.92;;
53781;SDS011;39692;53.114;7.060;2023-04-24T02:40:03;3.38;;;2.25;;
53781;SDS011;39692;53.114;7.060;2023-04-24T02:42:30;4.50;;;2.72;;
53781;SDS011;39692;53.114;7.060;2023-04-24T02:44:56;3.28;;;2.70;;
53781;SDS011;39692;53.114;7.060;2023-04-24T02:47:23;3.00;;;2.35;;
53781;SDS011;39692;53.114;7.060;2023-04-24T02:49:49;2.92;;;2.17;;
53781;SDS011;39692;53.114;7.060;2023-04-24T02:52:15;3.17;;;2.15;;
53781;SDS011;39692;53.114;7.060;2023-04-24T02:54:42;3.95;;;2.70;;
53781;SDS011;39692;53.114;7.060;2023-04-24T02:57:08;4.00;;;2.45;;
53781;SDS011;39692;53.114;7.060;2023-04-24T02:59:34;4.28;;;2.30;;
53781;SDS011;39692;53.114;7.060;2023-04-24T03:02:00;2.60;;;1.70;;
53781;SDS011;39692;53.114;7.060;2023-04-24T03:04:26;5.40;;;2.65;;
53781;SDS011;39692;53.114;7.060;2023-04-24T03:06:52;3.45;;;2.38;;
53781;SDS011;39692;53.114;7.060;2023-04-24T03:09:20;3.45;;;2.45;;
53781;SDS011;39692;53.114;7.060;2023-04-24T03:11:46;5.10;;;2.78;;
53781;SDS011;39692;53.114;7.060;2023-04-24T03:14:13;4.38;;;2.78;;
53781;SDS011;39692;53.114;7.060;2023-04-24T03:16:39;4.57;;;2.58;;
53781;SDS011;39692;53.114;7.060;2023-04-24T03:19:05;3.83;;;2.45;;
53781;SDS011;39692;53.114;7.060;2023-04-24T03:21:31;6.00;;;3.40;;
53781;SDS011;39692;53.114;7.060;2023-04-24T03:23:57;3.80;;;2.55;;
53781;SDS011;39692;53.114;7.060;2023-04-24T03:26:24;4.13;;;2.53;;
53781;SDS011;39692;53.114;7.060;2023-04-24T03:28:50;4.38;;;2.53;;
53781;SDS011;39692;53.114;7.060;2023-04-24T03:31:16;4.10;;;2.45;;
53781;SDS011;39692;53.114;7.060;2023-04-24T03:33:42;4.85;;;3.30;;
53781;SDS011;39692;53.114;7.060;2023-04-24T03:36:08;4.70;;;2.22;;
53781;SDS011;39692;53.114;7.060;2023-04-24T03:38:34;5.40;;;2.70;;
53781;SDS011;39692;53.114;7.060;2023-04-24T03:41:00;4.30;;;2.95;;
53781;SDS011;39692;53.114;7.060;2023-04-24T03:43:26;3.38;;;2.22;;
53781;SDS011;39692;53.114;7.060;2023-04-24T03:45:53;4.55;;;2.55;;
53781;SDS011;39692;53.114;7.060;2023-04-24T03:48:19;4.53;;;3.10;;
53781;SDS011;39692;53.114;7.060;2023-04-24T03:50:45;5.22;;;2.90;;
53781;SDS011;39692;53.114;7.060;2023-04-24T03:53:11;5.28;;;3.45;;
53781;SDS011;39692;53.114;7.060;2023-04-24T03:55:37;4.28;;;2.28;;
53781;SDS011;39692;53.114;7.060;2023-04-24T03:58:03;5.75;;;2.78;;
53781;SDS011;39692;53.114;7.060;2023-04-24T04:00:29;3.63;;;2.45;;
53781;SDS011;39692;53.114;7.060;2023-04-24T04:02:56;6.43;;;3.33;;
53781;SDS011;39692;53.114;7.060;2023-04-24T04:05:22;4.88;;;2.97;;
53781;SDS011;39692;53.114;7.060;2023-04-24T04:07:48;5.15;;;3.10;;
53781;SDS011;39692;53.114;7.060;2023-04-24T04:10:14;4.60;;;2.78;;
53781;SDS011;39692;53.114;7.060;2023-04-24T04:12:42;4.75;;;3.10;;
53781;SDS011;39692;53.114;7.060;2023-04-24T04:15:08;4.40;;;2.33;;
53781;SDS011;39692;53.114;7.060;2023-04-24T04:17:34;5.18;;;2.80;;
53781;SDS011;39692;53.114;7.060;2023-04-24T04:20:00;4.53;;;3.15;;
53781;SDS011;39692;53.114;7.060;2023-04-24T04:22:30;3.25;;;1.90;;
53781;SDS011;39692;53.114;7.060;2023-04-24T04:24:56;4.28;;;2.78;;
53781;SDS011;39692;53.114;7.060;2023-04-24T04:27:22;4.57;;;2.75;;
53781;SDS011;39692;53.114;7.060;2023-04-24T04:29:48;6.40;;;2.72;;
53781;SDS011;39692;53.114;7.060;2023-04-24T04:32:15;6.40;;;3.33;;
53781;SDS011;39692;53.114;7.060;2023-04-24T04:34:41;3.92;;;2.40;;
53781;SDS011;39692;53.114;7.060;2023-04-24T04:37:07;4.00;;;2.17;;
53781;SDS011;39692;53.114;7.060;2023-04-24T04:39:35;5.03;;;2.72;;
53781;SDS011;39692;53.114;7.060;2023-04-24T04:42:01;5.60;;;2.95;;
53781;SDS011;39692;53.114;7.060;2023-04-24T04:44:27;4.50;;;2.75;;
53781;SDS011;39692;53.114;7.060;2023-04-24T04:46:55;4.22;;;2.58;;
53781;SDS011;39692;53.114;7.060;2023-04-24T04:49:21;4.18;;;2.45;;
53781;SDS011;39692;53.114;7.060;2023-04-24T04:51:48;5.05;;;2.70;;
53781;SDS011;39692;53.114;7.060;2023-04-24T04:54:15;4.93;;;2.58;;
53781;SDS011;39692;53.114;7.060;2023-04-24T04:56:42;4.55;;;3.05;;
53781;SDS011;39692;53.114;7.060;2023-04-24T04:59:08;3.78;;;1.92;;
53781;SDS011;39692;53.114;7.060;2023-04-24T05:01:34;5.93;;;2.60;;
53781;SDS011;39692;53.114;7.060;2023-04-24T05:04:00;4.07;;;2.55;;
53781;SDS011;39692;53.114;7.060;2023-04-24T05:06:26;3.97;;;2.53;;
53781;SDS011;39692;53.114;7.060;2023-04-24T05:08:52;5.35;;;2.78;;
53781;SDS011;39692;53.114;7.060;2023-04-24T05:11:22;5.00;;;2.72;;
53781;SDS011;39692;53.114;7.060;2023-04-24T05:13:48;5.25;;;3.38;;
53781;SDS011;39692;53.114;7.060;2023-04-24T05:16:14;4.28;;;2.65;;
53781;SDS011;39692;53.114;7.060;2023-04-24T05:18:40;3.67;;;2.17;;
53781;SDS011;39692;53.114;7.060;2023-04-24T05:21:06;4.55;;;2.55;;
53781;SDS011;39692;53.114;7.060;2023-04-24T05:23:32;4.05;;;2.05;;
53781;SDS011;39692;53.114;7.060;2023-04-24T05:25:58;4.47;;;2.25;;
53781;SDS011;39692;53.114;7.060;2023-04-24T05:28:24;3.50;;;2.05;;
53781;SDS011;39692;53.114;7.060;2023-04-24T05:30:53;3.80;;;1.90;;
53781;SDS011;39692;53.114;7.060;2023-04-24T05:33:20;5.05;;;2.55;;
53781;SDS011;39692;53.114;7.060;2023-04-24T05:35:47;4.82;;;1.98;;
53781;SDS011;39692;53.114;7.060;2023-04-24T05:38:13;3.90;;;1.90;;
53781;SDS011;39692;53.114;7.060;2023-04-24T05:40:42;3.65;;;2.58;;
53781;SDS011;39692;53.114;7.060;2023-04-24T05:43:08;2.80;;;1.42;;
53781;SDS011;39692;53.114;7.060;2023-04-24T05:45:34;4.00;;;2.15;;
53781;SDS011;39692;53.114;7.060;2023-04-24T05:48:01;3.53;;;1.92;;
53781;SDS011;39692;53.114;7.060;2023-04-24T05:50:27;4.55;;;2.30;;
53781;SDS011;39692;53.114;7.060;2023-04-24T05:52:53;4.38;;;2.20;;
53781;SDS011;39692;53.114;7.060;2023-04-24T05:55:20;4.57;;;2.85;;
53781;SDS011;39692;53.114;7.060;2023-04-24T05:57:46;5.10;;;1.90;;
53781;SDS011;39692;53.114;7.060;2023-04-24T06:00:12;4.63;;;2.17;;
53781;SDS011;39692;53.114;7.060;2023-04-24T06:02:38;4.18;;;2.38;;
53781;SDS011;39692;53.114;7.060;2023-04-24T06:05:04;3.28;;;2.33;;
53781;SDS011;39692;53.114;7.060;2023-04-24T06:07:31;5.20;;;2.97;;
53781;SDS011;39692;53.114;7.060;2023-04-24T06:09:57;4.22;;;2.05;;
53781;SDS011;39692;53.114;7.060;2023-04-24T06:12:23;4.22;;;2.15;;
53781;SDS011;39692;53.114;7.060;2023-04-24T06:14:51;4.80;;;2.65;;
53781;SDS011;39692;53.114;7.060;2023-04-24T06:17:17;4.13;;;2.13;;
53781;SDS011;39692;53.114;7.060;2023-04-24T06:19:43;4.55;;;2.15;;
53781;SDS011;39692;53.114;7.060;2023-04-24T06:22:09;3.95;;;2.40;;
53781;SDS011;39692;53.114;7.060;2023-04-24T06:24:35;4.97;;;2.47;;
53781;SDS011;39692;53.114;7.060;2023-04-24T06:27:01;4.32;;;2.35;;
53781;SDS011;39692;53.114;7.060;2023-04-24T06:29:27;5.60;;;3.25;;
53781;SDS011;39692;53.114;7.060;2023-04-24T06:31:53;4.10;;;2.13;;
53781;SDS011;39692;53.114;7.060;2023-04-24T06:34:20;4.68;;;2.40;;
53781;SDS011;39692;53.114;7.060;2023-04-24T06:36:46;4.57;;;1.98;;
53781;SDS011;39692;53.114;7.060;2023-04-24T06:39:12;4.03;;;2.17;;
53781;SDS011;39692;53.114;7.060;2023-04-24T06:41:38;4.88;;;2.22;;
53781;SDS011;39692;53.114;7.060;2023-04-24T06:44:05;5.43;;;2.75;;
53781;SDS011;39692;53.114;7.060;2023-04-24T06:46:31;3.80;;;1.83;;
53781;SDS011;39692;53.114;7.060;2023-04-24T06:48:57;4.68;;;2.33;;
53781;SDS011;39692;53.114;7.060;2023-04-24T06:51:26;3.55;;;1.92;;
53781;SDS011;39692;53.114;7.060;2023-04-24T06:53:52;3.30;;;1.73;;
53781;SDS011;39692;53.114;7.060;2023-04-24T06:56:19;3.33;;;1.58;;
53781;SDS011;39692;53.114;7.060;2023-04-24T06:58:46;4.80;;;1.92;;
53781;SDS011;39692;53.114;7.060;2023-04-24T07:01:12;4.18;;;1.77;;
53781;SDS011;39692;53.114;7.060;2023-04-24T07:03:38;3.28;;;1.58;;
53781;SDS011;39692;53.114;7.060;2023-04-24T07:06:04;4.15;;;1.92;;
53781;SDS011;39692;53.114;7.060;2023-04-24T07:08:30;4.45;;;1.83;;
53781;SDS011;39692;53.114;7.060;2023-04-24T07:10:58;4.68;;;1.75;;
53781;SDS011;39692;53.114;7.060;2023-04-24T07:13:24;3.55;;;1.70;;
53781;SDS011;39692;53.114;7.060;2023-04-24T07:15:50;2.20;;;1.35;;
53781;SDS011;39692;53.114;7.060;2023-04-24T07:18:18;3.17;;;1.80;;
53781;SDS011;39692;53.114;7.060;2023-04-24T07:20:44;3.38;;;1.52;;
53781;SDS011;39692;53.114;7.060;2023-04-24T07:23:10;5.07;;;1.15;;
53781;SDS011;39692;53.114;7.060;2023-04-24T07:25:37;2.85;;;1.33;;
53781;SDS011;39692;53.114;7.060;2023-04-24T07:28:03;2.95;;;1.52;;
53781;SDS011;39692;53.114;7.060;2023-04-24T07:30:30;3.78;;;1.25;;
53781;SDS011;39692;53.114;7.060;2023-04-24T07:32:57;2.80;;;1.30;;
53781;SDS011;39692;53.114;7.060;2023-04-24T07:35:24;3.42;;;1.88;;
53781;SDS011;39692;53.114;7.060;2023-04-24T07:37:53;3.17;;;1.52;;
53781;SDS011;39692;53.114;7.060;2023-04-24T07:40:19;2.75;;;1.20;;
53781;SDS011;39692;53.114;7.060;2023-04-24T07:42:45;2.33;;;1.40;;
53781;SDS011;39692;53.114;7.060;2023-04-24T07:45:13;3.70;;;1.77;;
53781;SDS011;39692;53.114;7.060;2023-04-24T07:47:40;3.53;;;1.70;;
53781;SDS011;39692;53.114;7.060;2023-04-24T07:50:09;2.72;;;1.40;;
53781;SDS011;39692;53.114;7.060;2023-04-24T07:52:35;4.05;;;1.77;;
53781;SDS011;39692;53.114;7.060;2023-04-24T07:55:01;2.35;;;1.23;;
53781;SDS011;39692;53.114;7.060;2023-04-24T07:57:28;2.85;;;1.40;;
53781;SDS011;39692;53.114;7.060;2023-04-24T07:59:54;4.07;;;1.65;;
53781;SDS011;39692;53.114;7.060;2023-04-24T08:02:20;3.03;;;1.58;;
53781;SDS011;39692;53.114;7.060;2023-04-24T08:04:51;2.55;;;1.42;;
53781;SDS011;39692;53.114;7.060;2023-04-24T08:07:18;2.67;;;1.55;;
53781;SDS011;39692;53.114;7.060;2023-04-24T08:09:44;3.72;;;1.73;;
53781;SDS011;39692;53.114;7.060;2023-04-24T08:12:10;3.80;;;1.70;;
53781;SDS011;39692;53.114;7.060;2023-04-24T08:14:36;4.03;;;1.80;;
53781;SDS011;39692;53.114;7.060;2023-04-24T08:17:02;4.03;;;1.70;;
53781;SDS011;39692;53.114;7.060;2023-04-24T08:19:28;4.15;;;1.83;;
53781;SDS011;39692;53.114;7.060;2023-04-24T08:21:54;4.45;;;2.03;;
53781;SDS011;39692;53.114;7.060;2023-04-24T08:24:21;4.38;;;2.05;;
53781;SDS011;39692;53.114;7.060;2023-04-24T08:26:47;4.43;;;1.75;;
53781;SDS011;39692;53.114;7.060;2023-04-24T08:29:19;2.95;;;1.63;;
53781;SDS011;39692;53.114;7.060;2023-04-24T08:31:45;3.10;;;2.05;;
53781;SDS011;39692;53.114;7.060;2023-04-24T08:34:11;2.92;;;1.55;;
53781;SDS011;39692;53.114;7.060;2023-04-24T08:36:37;3.00;;;1.63;;
53781;SDS011;39692;53.114;7.060;2023-04-24T08:39:05;2.75;;;1.60;;
53781;SDS011;39692;53.114;7.060;2023-04-24T08:41:31;2.60;;;1.27;;
53781;SDS011;39692;53.114;7.060;2023-04-24T08:43:59;5.00;;;1.40;;
53781;SDS011;39692;53.114;7.060;2023-04-24T08:46:25;3.15;;;1.08;;
53781;SDS011;39692;53.114;7.060;2023-04-24T08:48:52;2.33;;;1.13;;
53781;SDS011;39692;53.114;7.060;2023-04-24T08:51:18;2.83;;;1.30;;
53781;SDS011;39692;53.114;7.060;2023-04-24T08:53:45;3.85;;;1.83;;
53781;SDS011;39692;53.114;7.060;2023-04-24T08:56:12;5.57;;;1.70;;
53781;SDS011;39692;53.114;7.060;2023-04-24T08:58:38;4.10;;;2.10;;
53781;SDS011;39692;53.114;7.060;2023-04-24T09:01:05;7.68;;;3.28;;
53781;SDS011;39692;53.114;7.060;2023-04-24T09:03:31;7.93;;;3.22;;
53781;SDS011;39692;53.114;7.060;2023-04-24T09:05:58;10.07;;;4.13;;
53781;SDS011;39692;53.114;7.060;2023-04-24T09:08:25;10.18;;;4.10;;
53781;SDS011;39692;53.114;7.060;2023-04-24T09:10:51;7.00;;;3.45;;
53781;SDS011;39692;53.114;7.060;2023-04-24T09:13:21;6.68;;;3.67;;
53781;SDS011;39692;53.114;7.060;2023-04-24T09:15:47;8.88;;;4.13;;
53781;SDS011;39692;53.114;7.060;2023-04-24T09:18:13;10.88;;;5.10;;
53781;SDS011;39692;53.114;7.060;2023-04-24T09:23:29;10.40;;;6.20;;
53781;SDS011;39692;53.114;7.060;2023-04-24T09:25:55;10.38;;;5.47;;
53781;SDS011;39692;53.114;7.060;2023-04-24T09:28:40;13.50;;;5.90;;
53781;SDS011;39692;53.114;7.060;2023-04-24T09:31:11;11.52;;;6.07;;
53781;SDS011;39692;53.114;7.060;2023-04-24T09:33:38;12.90;;;6.15;;
53781;SDS011;39692;53.114;7.060;2023-04-24T09:36:04;12.30;;;5.50;;
53781;SDS011;39692;53.114;7.060;2023-04-24T09:38:40;10.93;;;6.25;;
53781;SDS011;39692;53.114;7.060;2023-04-24T09:41:07;10.63;;;5.70;;
53781;SDS011;39692;53.114;7.060;2023-04-24T09:43:33;10.57;;;5.85;;
53781;SDS011;39692;53.114;7.060;2023-04-24T09:46:03;9.32;;;4.68;;
53781;SDS011;39692;53.114;7.060;2023-04-24T09:48:33;9.57;;;5.65;;
53781;SDS011;39692;53.114;7.060;2023-04-24T09:51:00;10.82;;;5.22;;
53781;SDS011;39692;53.114;7.060;2023-04-24T09:53:29;10.27;;;6.25;;
53781;SDS011;39692;53.114;7.060;2023-04-24T09:55:55;11.07;;;6.13;;
53781;SDS011;39692;53.114;7.060;2023-04-24T09:58:24;10.85;;;6.15;;
53781;SDS011;39692;53.114;7.060;2023-04-24T10:00:53;10.85;;;6.20;;
53781;SDS011;39692;53.114;7.060;2023-04-24T10:03:19;11.52;;;6.13;;
53781;SDS011;39692;53.114;7.060;2023-04-24T10:05:45;9.50;;;5.30;;
53781;SDS011;39692;53.114;7.060;2023-04-24T10:08:12;13.13;;;6.53;;
53781;SDS011;39692;53.114;7.060;2023-04-24T10:10:39;12.35;;;6.15;;
53781;SDS011;39692;53.114;7.060;2023-04-24T10:13:06;10.43;;;6.47;;
53781;SDS011;39692;53.114;7.060;2023-04-24T10:15:33;12.05;;;6.20;;
53781;SDS011;39692;53.114;7.060;2023-04-24T10:18:00;11.02;;;5.47;;
53781;SDS011;39692;53.114;7.060;2023-04-24T10:20:27;11.27;;;5.80;;
53781;SDS011;39692;53.114;7.060;2023-04-24T10:22:58;11.02;;;6.03;;
53781;SDS011;39692;53.114;7.060;2023-04-24T10:25:28;8.35;;;5.13;;
53781;SDS011;39692;53.114;7.060;2023-04-24T10:27:55;9.00;;;4.38;;
53781;SDS011;39692;53.114;7.060;2023-04-24T10:30:24;8.55;;;5.25;;
53781;SDS011;39692;53.114;7.060;2023-04-24T10:32:50;12.65;;;5.72;;
53781;SDS011;39692;53.114;7.060;2023-04-24T10:35:17;8.32;;;5.07;;
53781;SDS011;39692;53.114;7.060;2023-04-24T10:38:03;10.02;;;4.80;;
53781;SDS011;39692;53.114;7.060;2023-04-24T10:40:32;9.38;;;4.70;;
53781;SDS011;39692;53.114;7.060;2023-04-24T10:42:58;8.95;;;4.15;;
53781;SDS011;39692;53.114;7.060;2023-04-24T10:45:25;7.90;;;3.75;;
53781;SDS011;39692;53.114;7.060;2023-04-24T10:47:52;7.40;;;3.80;;
53781;SDS011;39692;53.114;7.060;2023-04-24T10:50:18;7.80;;;4.05;;
53781;SDS011;39692;53.114;7.060;2023-04-24T10:52:48;9.30;;;4.40;;
53781;SDS011;39692;53.114;7.060;2023-04-24T10:58:24;6.78;;;3.38;;
53781;SDS011;39692;53.114;7.060;2023-04-24T11:00:57;6.03;;;3.60;;
53781;SDS011;39692;53.114;7.060;2023-04-24T11:06:00;7.60;;;3.40;;
53781;SDS011;39692;53.114;7.060;2023-04-24T11:08:45;8.23;;;2.58;;
53781;SDS011;39692;53.114;7.060;2023-04-24T11:11:15;6.60;;;3.03;;
53781;SDS011;39692;53.114;7.060;2023-04-24T11:18:59;5.63;;;2.83;;
53781;SDS011;39692;53.114;7.060;2023-04-24T11:21:25;7.68;;;2.95;;
53781;SDS011;39692;53.114;7.060;2023-04-24T11:23:51;8.13;;;2.63;;
53781;SDS011;39692;53.114;7.060;2023-04-24T11:26:18;6.35;;;2.08;;
53781;SDS011;39692;53.114;7.060;2023-04-24T11:28:48;4.20;;;2.13;;
53781;SDS011;39692;53.114;7.060;2023-04-24T11:34:16;5.10;;;2.30;;
53781;SDS011;39692;53.114;7.060;2023-04-24T11:36:43;3.47;;;1.95;;
53781;SDS011;39692;53.114;7.060;2023-04-24T11:39:09;6.15;;;2.55;;
53781;SDS011;39692;53.114;7.060;2023-04-24T11:41:36;7.30;;;2.33;;
53781;SDS011;39692;53.114;7.060;2023-04-24T11:44:02;5.03;;;2.13;;
53781;SDS011;39692;53.114;7.060;2023-04-24T11:46:29;4.10;;;1.77;;
53781;SDS011;39692;53.114;7.060;2023-04-24T11:48:57;6.07;;;1.88;;
53781;SDS011;39692;53.114;7.060;2023-04-24T11:51:23;6.55;;;1.92;;
53781;SDS011;39692;53.114;7.060;2023-04-24T11:53:50;4.53;;;1.77;;
53781;SDS011;39692;53.114;7.060;2023-04-24T11:56:17;3.15;;;1.58;;
53781;SDS011;39692;53.114;7.060;2023-04-24T11:58:44;4.88;;;2.65;;
53781;SDS011;39692;53.114;7.060;2023-04-24T12:01:10;6.43;;;1.92;;
53781;SDS011;39692;53.114;7.060;2023-04-24T12:03:37;4.03;;;1.75;;
53781;SDS011;39692;53.114;7.060;2023-04-24T12:06:06;4.88;;;1.92;;
53781;SDS011;39692;53.114;7.060;2023-04-24T12:08:35;6.18;;;1.77;;
53781;SDS011;39692;53.114;7.060;2023-04-24T12:11:02;5.10;;;1.45;;
53781;SDS011;39692;53.114;7.060;2023-04-24T12:13:28;5.75;;;2.08;;
53781;SDS011;39692;53.114;7.060;2023-04-24T12:15:56;7.75;;;2.13;;
53781;SDS011;39692;53.114;7.060;2023-04-24T12:18:22;4.38;;;1.65;;
53781;SDS011;39692;53.114;7.060;2023-04-24T12:20:49;4.18;;;1.70;;
53781;SDS011;39692;53.114;7.060;2023-04-24T12:23:15;4.47;;;1.50;;
53781;SDS011;39692;53.114;7.060;2023-04-24T12:25:42;7.30;;;1.80;;
53781;SDS011;39692;53.114;7.060;2023-04-24T12:28:09;5.57;;;1.58;;
53781;SDS011;39692;53.114;7.060;2023-04-24T12:30:40;7.13;;;1.70;;
53781;SDS011;39692;53.114;7.060;2023-04-24T12:33:07;4.60;;;1.80;;
53781;SDS011;39692;53.114;7.060;2023-04-24T12:35:34;5.05;;;1.83;;
53781;SDS011;39692;53.114;7.060;2023-04-24T12:38:10;3.05;;;1.15;;
53781;SDS011;39692;53.114;7.060;2023-04-24T12:40:38;2.42;;;1.48;;
53781;SDS011;39692;53.114;7.060;2023-04-24T12:43:19;5.70;;;1.92;;
53781;SDS011;39692;53.114;7.060;2023-04-24T12:45:47;7.47;;;1.40;;
53781;SDS011;39692;53.114;7.060;2023-04-24T12:48:13;2.75;;;1.33;;
53781;SDS011;39692;53.114;7.060;2023-04-24T12:50:39;3.33;;;1.10;;
53781;SDS011;39692;53.114;7.060;2023-04-24T12:53:06;8.45;;;1.63;;
53781;SDS011;39692;53.114;7.060;2023-04-24T12:55:32;3.80;;;1.50;;
53781;SDS011;39692;53.114;7.060;2023-04-24T12:57:58;4.40;;;1.13;;
53781;SDS011;39692;53.114;7.060;2023-04-24T13:00:24;1.73;;;1.45;;
53781;SDS011;39692;53.114;7.060;2023-04-24T13:02:50;4.03;;;1.27;;
53781;SDS011;39692;53.114;7.060;2023-04-24T13:05:17;9.05;;;1.33;;
53781;SDS011;39692;53.114;7.060;2023-04-24T13:07:43;3.22;;;0.85;;
53781;SDS011;39692;53.114;7.060;2023-04-24T13:10:09;2.35;;;1.05;;
53781;SDS011;39692;53.114;7.060;2023-04-24T13:12:35;3.13;;;1.55;;
53781;SDS011;39692;53.114;7.060;2023-04-24T13:15:02;7.20;;;1.45;;
53781;SDS011;39692;53.114;7.060;2023-04-24T13:17:28;2.80;;;0.90;;
53781;SDS011;39692;53.114;7.060;2023-04-24T13:19:54;2.92;;;1.17;;
53781;SDS011;39692;53.114;7.060;2023-04-24T13:22:20;5.50;;;1.45;;
53781;SDS011;39692;53.114;7.060;2023-04-24T13:24:47;2.95;;;0.93;;
53781;SDS011;39692;53.114;7.060;2023-04-24T13:27:16;3.25;;;0.80;;
53781;SDS011;39692;53.114;7.060;2023-04-24T13:29:43;2.20;;;1.02;;
53781;SDS011;39692;53.114;7.060;2023-04-24T13:32:09;5.82;;;1.00;;
53781;SDS011;39692;53.114;7.060;2023-04-24T13:34:35;2.40;;;1.00;;
53781;SDS011;39692;53.114;7.060;2023-04-24T13:37:01;3.80;;;1.08;;
53781;SDS011;39692;53.114;7.060;2023-04-24T13:39:31;2.75;;;1.08;;
53781;SDS011;39692;53.114;7.060;2023-04-24T13:41:57;2.58;;;0.73;;
53781;SDS011;39692;53.114;7.060;2023-04-24T13:44:24;1.33;;;0.80;;
53781;SDS011;39692;53.114;7.060;2023-04-24T13:46:51;1.92;;;0.75;;
53781;SDS011;39692;53.114;7.060;2023-04-24T13:49:19;2.88;;;1.10;;
53781;SDS011;39692;53.114;7.060;2023-04-24T13:51:45;3.30;;;0.88;;
53781;SDS011;39692;53.114;7.060;2023-04-24T13:54:11;3.10;;;0.80;;
53781;SDS011;39692;53.114;7.060;2023-04-24T13:56:38;2.20;;;0.70;;
53781;SDS011;39692;53.114;7.060;2023-04-24T13:59:04;2.72;;;0.98;;
53781;SDS011;39692;53.114;7.060;2023-04-24T14:01:30;2.42;;;0.90;;
53781;SDS011;39692;53.114;7.060;2023-04-24T14:03:56;2.47;;;1.00;;
53781;SDS011;39692;53.114;7.060;2023-04-24T14:06:22;3.28;;;1.50;;
53781;SDS011;39692;53.114;7.060;2023-04-24T14:08:49;1.55;;;0.80;;
53781;SDS011;39692;53.114;7.060;2023-04-24T14:11:16;4.60;;;1.17;;
53781;SDS011;39692;53.114;7.060;2023-04-24T14:13:42;2.65;;;1.33;;
53781;SDS011;39692;53.114;7.060;2023-04-24T14:16:08;2.92;;;1.15;;
53781;SDS011;39692;53.114;7.060;2023-04-24T14:18:35;4.15;;;1.08;;
53781;SDS011;39692;53.114;7.060;2023-04-24T14:21:02;5.13;;;1.05;;
53781;SDS011;39692;53.114;7.060;2023-04-24T14:23:28;2.78;;;0.70;;
53781;SDS011;39692;53.114;7.060;2023-04-24T14:25:54;1.98;;;0.82;;
53781;SDS011;39692;53.114;7.060;2023-04-24T14:28:20;2.53;;;0.70;;
53781;SDS011;39692;53.114;7.060;2023-04-24T14:30:47;4.00;;;0.75;;
53781;SDS011;39692;53.114;7.060;2023-04-24T14:33:14;3.80;;;1.08;;
53781;SDS011;39692;53.114;7.060;2023-04-24T14:35:40;3.60;;;0.90;;
53781;SDS011;39692;53.114;7.060;2023-04-24T14:38:10;2.03;;;0.40;;
53781;SDS011;39692;53.114;7.060;2023-04-24T14:40:36;2.20;;;0.50;;
53781;SDS011;39692;53.114;7.060;2023-04-24T14:43:03;1.35;;;0.47;;
53781;SDS011;39692;53.114;7.060;2023-04-24T14:45:29;1.08;;;0.60;;
53781;SDS011;39692;53.114;7.060;2023-04-24T14:47:55;1.45;;;0.70;;
53781;SDS011;39692;53.114;7.060;2023-04-24T14:50:21;2.67;;;0.75;;
53781;SDS011;39692;53.114;7.060;2023-04-24T14:52:47;1.33;;;0.70;;
53781;SDS011;39692;53.114;7.060;2023-04-24T14:55:13;2.85;;;1.23;;
53781;SDS011;39692;53.114;7.060;2023-04-24T14:57:40;2.10;;;0.88;;
53781;SDS011;39692;53.114;7.060;2023-04-24T15:00:06;3.63;;;1.38;;